Relevés horaires St-Hubert (Belgique)


Relevés horaires à St-Hubert - Samedi 14 Juill. 2018
Heure UTC1 Température [°C] Vent [km/h] Hum. [%] Pres.4 [hPa] Visi. [Km] Nébu. [octa] Préc.5 [mm] Cond.
2m. Res. Ros. Dir.2 Vit. Moy. Raf.3
23:00 14.8 14.8 10.9 NNO 0.0 0.0 0.0 77 1018.7(0.2/3h) 40 0/8 -- --
22:00 15.6 15.6 11.9 NNO 0.0 0.0 0.0 79 1018.6(0.3/3h) 35 0/8 -- --
21:00 15.6 15.6 11.9 NNO 0.0 0.0 0.0 79 1018.5(0.3/3h) 35 0/8 -- --
20:00 18.0 18.0 13.8 NNO 0.0 0.0 0.0 76 1017.7(-0.1/3h) 35 0/8 -- --
19:00 19.8 19.8 13.7 NNO 0.0 0.0 0.0 68 1017.2(-0.4/3h) 30 0/8 -- --
18:00 21.3 21.3 12.3 NNO 0.0 0.0 0.0 56 1016.9(-0.5/3h) 30 0/8 0/12h
--
17:00 22.5 22.5 11.8 NNO 0.0 0.0 0.0 51 1017(-0.5/3h) 40 0/8 -- --
16:00 22.9 22.9 11.2 NNO 0.0 0.0 0.0 48 1017(-0.8/3h) 30 0/8 -- --
15:00 23.2 23.2 10.5 NNO 0.0 0.0 0.0 45 1017.2(-1.0/3h) 30 0/8 -- --
14:00 23.9 23.9 10.5 NNO 0.0 0.0 0.0 43 1017.2(-1.1/3h) 30 0/8 -- --
13:00 23.9 23.9 11.7 NNO 0.0 0.0 0.0 46 1017.7(-1.0/3h) 27 0/8 -- --
12:00 23.2 23.2 12.0 NNO 0.0 0.0 0.0 49 1018.2(-0.7/3h) 29 0/8 0/6h
--
11:00 22.6 22.6 11.3 NNO 0.0 0.0 0.0 49 1018.6(-0.5/3h) 27 0/8 -- --
10:00 22.2 22.2 11.0 NNO 0.0 0.0 0.0 49 1019.1(0.0/3h) 23 0/8 -- --
09:00 21.1 21.1 11.1 NNO 0.0 0.0 0.0 53 1019.4(0.4/3h) 30 0/8 -- --
08:00 19.6 19.6 10.6 NNO 0.0 0.0 0.0 56 1019.8(0.4/3h) 27 0/8 -- --
07:00 17.3 17.3 11.1 NNO 0.0 0.0 0.0 67 1020.2(0.3/3h) 30 0/8 -- --
06:00 16.2 16.2 11.6 NNO 0.0 0.0 0.0 74 1020.1(0.0/3h) 27 0/8 0/12h
--
05:00 14.4 14.4 11.9 NNO 0.0 0.0 0.0 85 1020.5(0.1/3h) 23 0/8 -- --
04:00 12.9 12.9 11.1 NNO 0.0 0.0 0.0 89 1020.9(-0.2/3h) 28 0/8 -- --
03:00 15.0 15.0 11.2 NNO 0.0 0.0 0.0 78 1020.3(-0.5/3h) 27 0/8 -- --
02:00 13.7 13.7 11.1 NNO 0.0 0.0 0.0 84 1020.6(-0.7/3h) 40 0/8 -- Ciel clair
01:00 16.2 16.2 10.9 NNO 0.0 0.0 0.0 71 1020.3(-0.3/3h) 40 0/8 -- --
00:00 16.8 16.8 10.8 NNO 0.0 0.0 0.0 68 1020.5(0.1/3h) 45 0/8 0/6h
0/24h
--

1 Coordinated Universal Time. Actuellement il est 17:00 locale et 15:00 UTC.

2 Le vent souffle depuis la direction indiquée vers la direction oposée.

3 Les rafales max. sont disponible 40 min après l'heure du relevé.

4 Pour les stations d'altitude (plus de 600m) le géopotentiel du niveau le plus proche de la pression obligatoire est indiqué.

5 Les stations disposant d'un diffuseur peuvent indiquer "trace". Cela signifie que des précipitations ont touchés le sol mais que la quantité est inférieure à 0.1 mm.

Récapitulatif de la journée
Température [°C] Vent [km/h] Ensoleillement4 [h] Precipitations totale5 [mm] Pression [Hpa]
Min1 Max.2 Moy.3 Max. Min Max.
12.9 24.6 0 0.0 0 h 0 min 0 1016.9 1020.9

1 Température minimale relevée entre 18:00 UTC la veille et 18:00 UTC le jour donné.

2 Température maximale relevée entre 06:00 UTC le jour donné et 06:00 UTC le lendemain.

3 Vent moyen de la journée basé sur les relevés horaires.

4 Ensoleillement en heures relevé entre 06:00 UTC la veille et 06:00 UTC le jour donné.

5 Précipitations totales tombées entre 06:00 UTC la jour donné et 06:00 UTC le lendemain.

Graphiques horaires